sensor_id;sensor_type;location;lat;lon;timestamp;pressure;altitude;pressure_sealevel;temperature
19282;BMP180;9774;52.034;5.342;2023-02-28T00:01:09;102956.00;;;7.90
19282;BMP180;9774;52.034;5.342;2023-02-28T00:03:37;102960.00;;;7.90
19282;BMP180;9774;52.034;5.342;2023-02-28T00:06:07;102958.00;;;7.90
19282;BMP180;9774;52.034;5.342;2023-02-28T00:08:35;102946.00;;;7.90
19282;BMP180;9774;52.034;5.342;2023-02-28T00:11:04;102949.00;;;7.90
19282;BMP180;9774;52.034;5.342;2023-02-28T00:13:33;102939.00;;;8.00
19282;BMP180;9774;52.034;5.342;2023-02-28T00:16:01;102962.00;;;8.00
19282;BMP180;9774;52.034;5.342;2023-02-28T00:18:29;102952.00;;;8.00
19282;BMP180;9774;52.034;5.342;2023-02-28T00:20:57;102959.00;;;8.10
19282;BMP180;9774;52.034;5.342;2023-02-28T00:23:26;102959.00;;;8.10
19282;BMP180;9774;52.034;5.342;2023-02-28T00:25:54;102965.00;;;8.10
19282;BMP180;9774;52.034;5.342;2023-02-28T00:28:21;102965.00;;;8.20
19282;BMP180;9774;52.034;5.342;2023-02-28T00:30:49;102962.00;;;8.20
19282;BMP180;9774;52.034;5.342;2023-02-28T00:33:17;102957.00;;;8.20
19282;BMP180;9774;52.034;5.342;2023-02-28T00:35:44;102959.00;;;8.30
19282;BMP180;9774;52.034;5.342;2023-02-28T00:38:12;102967.00;;;8.30
19282;BMP180;9774;52.034;5.342;2023-02-28T00:40:41;102963.00;;;8.30
19282;BMP180;9774;52.034;5.342;2023-02-28T00:43:09;102954.00;;;8.40
19282;BMP180;9774;52.034;5.342;2023-02-28T00:45:36;102951.00;;;8.40
19282;BMP180;9774;52.034;5.342;2023-02-28T00:48:03;102961.00;;;8.50
19282;BMP180;9774;52.034;5.342;2023-02-28T00:50:31;102956.00;;;8.50
19282;BMP180;9774;52.034;5.342;2023-02-28T00:52:58;102948.00;;;8.50
19282;BMP180;9774;52.034;5.342;2023-02-28T00:55:25;102957.00;;;8.60
19282;BMP180;9774;52.034;5.342;2023-02-28T00:57:54;102945.00;;;8.60
19282;BMP180;9774;52.034;5.342;2023-02-28T01:00:21;102950.00;;;8.70
19282;BMP180;9774;52.034;5.342;2023-02-28T01:02:49;102950.00;;;8.70
19282;BMP180;9774;52.034;5.342;2023-02-28T01:05:16;102959.00;;;8.70
19282;BMP180;9774;52.034;5.342;2023-02-28T01:07:43;102955.00;;;8.80
19282;BMP180;9774;52.034;5.342;2023-02-28T01:10:11;102962.00;;;8.80
19282;BMP180;9774;52.034;5.342;2023-02-28T01:12:38;102962.00;;;8.80
19282;BMP180;9774;52.034;5.342;2023-02-28T01:15:09;102962.00;;;8.80
19282;BMP180;9774;52.034;5.342;2023-02-28T01:17:36;102963.00;;;8.90
19282;BMP180;9774;52.034;5.342;2023-02-28T01:20:05;102964.00;;;8.90
19282;BMP180;9774;52.034;5.342;2023-02-28T01:22:32;102964.00;;;8.90
19282;BMP180;9774;52.034;5.342;2023-02-28T01:25:01;102965.00;;;9.00
19282;BMP180;9774;52.034;5.342;2023-02-28T01:27:28;102954.00;;;9.00
19282;BMP180;9774;52.034;5.342;2023-02-28T01:29:55;102957.00;;;9.00
19282;BMP180;9774;52.034;5.342;2023-02-28T01:32:24;102953.00;;;9.00
19282;BMP180;9774;52.034;5.342;2023-02-28T01:34:51;102953.00;;;9.00
19282;BMP180;9774;52.034;5.342;2023-02-28T01:37:18;102957.00;;;9.10
19282;BMP180;9774;52.034;5.342;2023-02-28T01:39:46;102942.00;;;9.10
19282;BMP180;9774;52.034;5.342;2023-02-28T01:42:13;102949.00;;;9.10
19282;BMP180;9774;52.034;5.342;2023-02-28T01:45:02;102942.00;;;9.00
19282;BMP180;9774;52.034;5.342;2023-02-28T01:47:34;102942.00;;;9.10
19282;BMP180;9774;52.034;5.342;2023-02-28T01:50:06;102939.00;;;9.10
19282;BMP180;9774;52.034;5.342;2023-02-28T01:52:34;102933.00;;;9.20
19282;BMP180;9774;52.034;5.342;2023-02-28T01:55:04;102940.00;;;9.20
19282;BMP180;9774;52.034;5.342;2023-02-28T01:57:35;102937.00;;;9.20
19282;BMP180;9774;52.034;5.342;2023-02-28T02:00:09;102935.00;;;9.20
19282;BMP180;9774;52.034;5.342;2023-02-28T02:02:38;102932.00;;;9.20
19282;BMP180;9774;52.034;5.342;2023-02-28T02:05:08;102936.00;;;9.30
19282;BMP180;9774;52.034;5.342;2023-02-28T02:07:37;102928.00;;;9.30
19282;BMP180;9774;52.034;5.342;2023-02-28T02:10:10;102918.00;;;9.30
19282;BMP180;9774;52.034;5.342;2023-02-28T02:12:58;102922.00;;;9.20
19282;BMP180;9774;52.034;5.342;2023-02-28T02:15:32;102916.00;;;9.30
19282;BMP180;9774;52.034;5.342;2023-02-28T02:18:06;102909.00;;;9.30
19282;BMP180;9774;52.034;5.342;2023-02-28T02:20:55;102907.00;;;9.30
19282;BMP180;9774;52.034;5.342;2023-02-28T02:26:52;102910.00;;;9.30
19282;BMP180;9774;52.034;5.342;2023-02-28T02:29:42;102924.00;;;9.30
19282;BMP180;9774;52.034;5.342;2023-02-28T02:35:16;102925.00;;;9.40
19282;BMP180;9774;52.034;5.342;2023-02-28T02:37:50;102924.00;;;9.40
19282;BMP180;9774;52.034;5.342;2023-02-28T02:40:19;102927.00;;;9.50
19282;BMP180;9774;52.034;5.342;2023-02-28T02:42:51;102938.00;;;9.50
19282;BMP180;9774;52.034;5.342;2023-02-28T02:45:25;102937.00;;;9.50
19282;BMP180;9774;52.034;5.342;2023-02-28T02:47:56;102929.00;;;9.50
19282;BMP180;9774;52.034;5.342;2023-02-28T02:50:30;102930.00;;;9.50
19282;BMP180;9774;52.034;5.342;2023-02-28T02:53:01;102933.00;;;9.50
19282;BMP180;9774;52.034;5.342;2023-02-28T02:55:32;102932.00;;;9.50
19282;BMP180;9774;52.034;5.342;2023-02-28T02:58:03;102926.00;;;9.50
19282;BMP180;9774;52.034;5.342;2023-02-28T03:00:34;102926.00;;;9.50
19282;BMP180;9774;52.034;5.342;2023-02-28T03:03:03;102930.00;;;9.50
19282;BMP180;9774;52.034;5.342;2023-02-28T03:05:39;102929.00;;;9.50
19282;BMP180;9774;52.034;5.342;2023-02-28T03:08:08;102931.00;;;9.60
19282;BMP180;9774;52.034;5.342;2023-02-28T03:10:37;102937.00;;;9.50
19282;BMP180;9774;52.034;5.342;2023-02-28T03:13:48;102931.00;;;9.50
19282;BMP180;9774;52.034;5.342;2023-02-28T03:16:35;102929.00;;;9.50
19282;BMP180;9774;52.034;5.342;2023-02-28T03:19:12;102933.00;;;9.60
19282;BMP180;9774;52.034;5.342;2023-02-28T03:21:53;102929.00;;;9.60
19282;BMP180;9774;52.034;5.342;2023-02-28T03:24:27;102920.00;;;9.60
19282;BMP180;9774;52.034;5.342;2023-02-28T03:27:03;102933.00;;;9.60
19282;BMP180;9774;52.034;5.342;2023-02-28T03:29:35;102928.00;;;9.60
19282;BMP180;9774;52.034;5.342;2023-02-28T03:32:06;102929.00;;;9.70
19282;BMP180;9774;52.034;5.342;2023-02-28T03:34:42;102941.00;;;9.70
19282;BMP180;9774;52.034;5.342;2023-02-28T03:37:17;102942.00;;;9.70
19282;BMP180;9774;52.034;5.342;2023-02-28T03:39:49;102940.00;;;9.70
19282;BMP180;9774;52.034;5.342;2023-02-28T03:42:20;102938.00;;;9.70
19282;BMP180;9774;52.034;5.342;2023-02-28T03:44:51;102928.00;;;9.70
19282;BMP180;9774;52.034;5.342;2023-02-28T03:47:24;102933.00;;;9.70
19282;BMP180;9774;52.034;5.342;2023-02-28T03:49:54;102941.00;;;9.80
19282;BMP180;9774;52.034;5.342;2023-02-28T03:52:29;102942.00;;;9.70
19282;BMP180;9774;52.034;5.342;2023-02-28T03:55:01;102940.00;;;9.80
19282;BMP180;9774;52.034;5.342;2023-02-28T03:57:36;102943.00;;;9.80
19282;BMP180;9774;52.034;5.342;2023-02-28T04:00:07;102942.00;;;9.80
19282;BMP180;9774;52.034;5.342;2023-02-28T04:02:35;102939.00;;;9.80
19282;BMP180;9774;52.034;5.342;2023-02-28T04:05:03;102942.00;;;9.80
19282;BMP180;9774;52.034;5.342;2023-02-28T04:07:32;102945.00;;;9.80
19282;BMP180;9774;52.034;5.342;2023-02-28T04:10:00;102944.00;;;9.90
19282;BMP180;9774;52.034;5.342;2023-02-28T04:12:27;102951.00;;;9.90
19282;BMP180;9774;52.034;5.342;2023-02-28T04:14:54;102947.00;;;9.90
19282;BMP180;9774;52.034;5.342;2023-02-28T04:17:21;102959.00;;;9.90
19282;BMP180;9774;52.034;5.342;2023-02-28T04:19:49;102959.00;;;9.80
19282;BMP180;9774;52.034;5.342;2023-02-28T04:22:16;102955.00;;;9.80
19282;BMP180;9774;52.034;5.342;2023-02-28T04:24:45;102964.00;;;9.80
19282;BMP180;9774;52.034;5.342;2023-02-28T04:27:12;102953.00;;;9.80
19282;BMP180;9774;52.034;5.342;2023-02-28T04:29:41;102949.00;;;9.80
19282;BMP180;9774;52.034;5.342;2023-02-28T04:32:10;102955.00;;;9.80
19282;BMP180;9774;52.034;5.342;2023-02-28T04:34:38;102956.00;;;9.80
19282;BMP180;9774;52.034;5.342;2023-02-28T04:37:06;102960.00;;;9.80
19282;BMP180;9774;52.034;5.342;2023-02-28T04:39:35;102958.00;;;9.80
19282;BMP180;9774;52.034;5.342;2023-02-28T04:42:04;102961.00;;;9.80
19282;BMP180;9774;52.034;5.342;2023-02-28T04:44:32;102962.00;;;9.80
19282;BMP180;9774;52.034;5.342;2023-02-28T04:46:59;102965.00;;;9.80
19282;BMP180;9774;52.034;5.342;2023-02-28T04:49:26;102968.00;;;9.80
19282;BMP180;9774;52.034;5.342;2023-02-28T04:51:53;102966.00;;;9.80
19282;BMP180;9774;52.034;5.342;2023-02-28T04:54:21;102971.00;;;9.80
19282;BMP180;9774;52.034;5.342;2023-02-28T04:56:49;102967.00;;;9.80
19282;BMP180;9774;52.034;5.342;2023-02-28T04:59:17;102967.00;;;9.70
19282;BMP180;9774;52.034;5.342;2023-02-28T05:01:47;102960.00;;;9.70
19282;BMP180;9774;52.034;5.342;2023-02-28T05:04:15;102970.00;;;9.70
19282;BMP180;9774;52.034;5.342;2023-02-28T05:06:42;102972.00;;;9.70
19282;BMP180;9774;52.034;5.342;2023-02-28T05:09:09;102968.00;;;9.70
19282;BMP180;9774;52.034;5.342;2023-02-28T05:11:38;102966.00;;;9.70
19282;BMP180;9774;52.034;5.342;2023-02-28T05:14:06;102966.00;;;9.70
19282;BMP180;9774;52.034;5.342;2023-02-28T05:16:37;102959.00;;;9.60
19282;BMP180;9774;52.034;5.342;2023-02-28T05:19:04;102968.00;;;9.60
19282;BMP180;9774;52.034;5.342;2023-02-28T05:21:33;102963.00;;;9.60
19282;BMP180;9774;52.034;5.342;2023-02-28T05:24:02;102966.00;;;9.60
19282;BMP180;9774;52.034;5.342;2023-02-28T05:26:30;102966.00;;;9.60
19282;BMP180;9774;52.034;5.342;2023-02-28T05:28:58;102974.00;;;9.60
19282;BMP180;9774;52.034;5.342;2023-02-28T05:31:25;102969.00;;;9.60
19282;BMP180;9774;52.034;5.342;2023-02-28T05:33:54;102972.00;;;9.50
19282;BMP180;9774;52.034;5.342;2023-02-28T05:36:21;102968.00;;;9.50
19282;BMP180;9774;52.034;5.342;2023-02-28T05:38:49;102963.00;;;9.50
19282;BMP180;9774;52.034;5.342;2023-02-28T05:41:18;102958.00;;;9.50
19282;BMP180;9774;52.034;5.342;2023-02-28T05:43:46;102960.00;;;9.50
19282;BMP180;9774;52.034;5.342;2023-02-28T05:46:14;102954.00;;;9.50
19282;BMP180;9774;52.034;5.342;2023-02-28T05:48:42;102956.00;;;9.50
19282;BMP180;9774;52.034;5.342;2023-02-28T05:51:14;102955.00;;;9.50
19282;BMP180;9774;52.034;5.342;2023-02-28T05:53:42;102955.00;;;9.50
19282;BMP180;9774;52.034;5.342;2023-02-28T05:56:09;102961.00;;;9.50
19282;BMP180;9774;52.034;5.342;2023-02-28T05:58:36;102970.00;;;9.50
19282;BMP180;9774;52.034;5.342;2023-02-28T06:01:20;102968.00;;;9.40
19282;BMP180;9774;52.034;5.342;2023-02-28T06:03:48;102970.00;;;9.50
19282;BMP180;9774;52.034;5.342;2023-02-28T06:06:17;102964.00;;;9.40
19282;BMP180;9774;52.034;5.342;2023-02-28T06:08:45;102961.00;;;9.50
19282;BMP180;9774;52.034;5.342;2023-02-28T06:11:14;102960.00;;;9.40
19282;BMP180;9774;52.034;5.342;2023-02-28T06:13:41;102956.00;;;9.40
19282;BMP180;9774;52.034;5.342;2023-02-28T06:16:10;102950.00;;;9.40
19282;BMP180;9774;52.034;5.342;2023-02-28T06:18:38;102949.00;;;9.30
19282;BMP180;9774;52.034;5.342;2023-02-28T06:21:05;102956.00;;;9.30
19282;BMP180;9774;52.034;5.342;2023-02-28T06:23:36;102950.00;;;9.30
19282;BMP180;9774;52.034;5.342;2023-02-28T06:26:03;102950.00;;;9.30
19282;BMP180;9774;52.034;5.342;2023-02-28T06:28:31;102951.00;;;9.30
19282;BMP180;9774;52.034;5.342;2023-02-28T06:30:58;102951.00;;;9.30
19282;BMP180;9774;52.034;5.342;2023-02-28T06:33:26;102956.00;;;9.30
19282;BMP180;9774;52.034;5.342;2023-02-28T06:35:53;102947.00;;;9.30
19282;BMP180;9774;52.034;5.342;2023-02-28T06:38:21;102956.00;;;9.20
19282;BMP180;9774;52.034;5.342;2023-02-28T06:40:54;102958.00;;;9.20
19282;BMP180;9774;52.034;5.342;2023-02-28T06:43:23;102943.00;;;9.20
19282;BMP180;9774;52.034;5.342;2023-02-28T06:45:53;102952.00;;;9.20
19282;BMP180;9774;52.034;5.342;2023-02-28T06:48:20;102963.00;;;9.20
19282;BMP180;9774;52.034;5.342;2023-02-28T06:50:48;102968.00;;;9.30
19282;BMP180;9774;52.034;5.342;2023-02-28T06:53:15;102964.00;;;9.30
19282;BMP180;9774;52.034;5.342;2023-02-28T06:55:42;102956.00;;;9.30
19282;BMP180;9774;52.034;5.342;2023-02-28T06:58:11;102966.00;;;9.30
19282;BMP180;9774;52.034;5.342;2023-02-28T07:00:41;102967.00;;;9.30
19282;BMP180;9774;52.034;5.342;2023-02-28T07:03:10;102966.00;;;9.30
19282;BMP180;9774;52.034;5.342;2023-02-28T07:05:38;102963.00;;;9.30
19282;BMP180;9774;52.034;5.342;2023-02-28T07:08:06;102970.00;;;9.30
19282;BMP180;9774;52.034;5.342;2023-02-28T07:10:33;102974.00;;;9.30
19282;BMP180;9774;52.034;5.342;2023-02-28T07:13:01;102979.00;;;9.40
19282;BMP180;9774;52.034;5.342;2023-02-28T07:15:29;102981.00;;;9.40
19282;BMP180;9774;52.034;5.342;2023-02-28T07:17:56;102982.00;;;9.40
19282;BMP180;9774;52.034;5.342;2023-02-28T07:20:24;102975.00;;;9.40
19282;BMP180;9774;52.034;5.342;2023-02-28T07:22:52;102977.00;;;9.40
19282;BMP180;9774;52.034;5.342;2023-02-28T07:25:22;102979.00;;;9.40
19282;BMP180;9774;52.034;5.342;2023-02-28T07:27:50;102973.00;;;9.50
19282;BMP180;9774;52.034;5.342;2023-02-28T07:30:25;102984.00;;;9.40
19282;BMP180;9774;52.034;5.342;2023-02-28T07:32:54;102978.00;;;9.50
19282;BMP180;9774;52.034;5.342;2023-02-28T07:35:22;102987.00;;;9.50
19282;BMP180;9774;52.034;5.342;2023-02-28T07:37:49;102989.00;;;9.60
19282;BMP180;9774;52.034;5.342;2023-02-28T07:40:16;102990.00;;;9.60
19282;BMP180;9774;52.034;5.342;2023-02-28T07:42:44;102987.00;;;9.60
19282;BMP180;9774;52.034;5.342;2023-02-28T07:45:12;102979.00;;;9.60
19282;BMP180;9774;52.034;5.342;2023-02-28T07:47:39;102982.00;;;9.70
19282;BMP180;9774;52.034;5.342;2023-02-28T07:50:13;102995.00;;;9.70
19282;BMP180;9774;52.034;5.342;2023-02-28T07:52:41;102988.00;;;9.80
19282;BMP180;9774;52.034;5.342;2023-02-28T07:55:10;103006.00;;;9.80
19282;BMP180;9774;52.034;5.342;2023-02-28T07:57:37;103003.00;;;9.90
19282;BMP180;9774;52.034;5.342;2023-02-28T08:00:07;103002.00;;;9.90
19282;BMP180;9774;52.034;5.342;2023-02-28T08:02:35;103007.00;;;9.90
19282;BMP180;9774;52.034;5.342;2023-02-28T08:05:03;103003.00;;;10.00
19282;BMP180;9774;52.034;5.342;2023-02-28T08:07:31;103015.00;;;10.00
19282;BMP180;9774;52.034;5.342;2023-02-28T08:09:59;103007.00;;;10.10
19282;BMP180;9774;52.034;5.342;2023-02-28T08:12:26;103005.00;;;10.10
19282;BMP180;9774;52.034;5.342;2023-02-28T08:14:54;103017.00;;;10.20
19282;BMP180;9774;52.034;5.342;2023-02-28T08:17:21;103012.00;;;10.20
19282;BMP180;9774;52.034;5.342;2023-02-28T08:19:48;103017.00;;;10.30
19282;BMP180;9774;52.034;5.342;2023-02-28T08:22:16;103012.00;;;10.30
19282;BMP180;9774;52.034;5.342;2023-02-28T08:24:45;103014.00;;;10.30
19282;BMP180;9774;52.034;5.342;2023-02-28T08:27:12;103022.00;;;10.40
19282;BMP180;9774;52.034;5.342;2023-02-28T08:29:39;103020.00;;;10.50
19282;BMP180;9774;52.034;5.342;2023-02-28T08:32:07;103026.00;;;10.50
19282;BMP180;9774;52.034;5.342;2023-02-28T08:34:34;103023.00;;;10.50
19282;BMP180;9774;52.034;5.342;2023-02-28T08:37:02;103013.00;;;10.50
19282;BMP180;9774;52.034;5.342;2023-02-28T08:39:29;103015.00;;;10.60
19282;BMP180;9774;52.034;5.342;2023-02-28T08:41:58;103020.00;;;10.60
19282;BMP180;9774;52.034;5.342;2023-02-28T08:44:25;103019.00;;;10.60
19282;BMP180;9774;52.034;5.342;2023-02-28T08:46:53;103013.00;;;10.60
19282;BMP180;9774;52.034;5.342;2023-02-28T08:49:20;103020.00;;;10.70
19282;BMP180;9774;52.034;5.342;2023-02-28T08:51:47;103019.00;;;10.70
19282;BMP180;9774;52.034;5.342;2023-02-28T08:54:15;103013.00;;;10.70
19282;BMP180;9774;52.034;5.342;2023-02-28T08:56:45;103013.00;;;10.70
19282;BMP180;9774;52.034;5.342;2023-02-28T08:59:14;103009.00;;;10.70
19282;BMP180;9774;52.034;5.342;2023-02-28T09:01:42;103009.00;;;10.80
19282;BMP180;9774;52.034;5.342;2023-02-28T09:04:10;103018.00;;;10.90
19282;BMP180;9774;52.034;5.342;2023-02-28T09:06:38;103006.00;;;10.90
19282;BMP180;9774;52.034;5.342;2023-02-28T09:09:05;103005.00;;;11.00
19282;BMP180;9774;52.034;5.342;2023-02-28T09:11:33;103017.00;;;11.10
19282;BMP180;9774;52.034;5.342;2023-02-28T09:14:02;103016.00;;;11.20
19282;BMP180;9774;52.034;5.342;2023-02-28T09:16:32;103008.00;;;11.30
19282;BMP180;9774;52.034;5.342;2023-02-28T09:18:59;103013.00;;;11.50
19282;BMP180;9774;52.034;5.342;2023-02-28T09:21:27;103014.00;;;11.60
19282;BMP180;9774;52.034;5.342;2023-02-28T09:23:55;103007.00;;;11.60
19282;BMP180;9774;52.034;5.342;2023-02-28T09:26:24;103009.00;;;11.70
19282;BMP180;9774;52.034;5.342;2023-02-28T09:28:53;103012.00;;;11.70
19282;BMP180;9774;52.034;5.342;2023-02-28T09:31:22;103027.00;;;11.80
19282;BMP180;9774;52.034;5.342;2023-02-28T09:33:53;103022.00;;;11.80
19282;BMP180;9774;52.034;5.342;2023-02-28T09:36:22;103026.00;;;11.80
19282;BMP180;9774;52.034;5.342;2023-02-28T09:38:49;103025.00;;;11.80
19282;BMP180;9774;52.034;5.342;2023-02-28T09:41:21;103019.00;;;11.90
19282;BMP180;9774;52.034;5.342;2023-02-28T09:43:52;103025.00;;;11.90
19282;BMP180;9774;52.034;5.342;2023-02-28T09:46:28;103016.00;;;11.80
19282;BMP180;9774;52.034;5.342;2023-02-28T09:48:59;103016.00;;;11.90
19282;BMP180;9774;52.034;5.342;2023-02-28T09:51:46;103026.00;;;11.80
19282;BMP180;9774;52.034;5.342;2023-02-28T09:54:17;103021.00;;;11.90
19282;BMP180;9774;52.034;5.342;2023-02-28T09:56:48;103021.00;;;11.90
19282;BMP180;9774;52.034;5.342;2023-02-28T09:59:29;103023.00;;;11.90
19282;BMP180;9774;52.034;5.342;2023-02-28T10:02:04;103018.00;;;12.00
19282;BMP180;9774;52.034;5.342;2023-02-28T10:04:43;103030.00;;;12.00
19282;BMP180;9774;52.034;5.342;2023-02-28T10:07:25;103026.00;;;12.10
19282;BMP180;9774;52.034;5.342;2023-02-28T10:09:56;103020.00;;;12.20
19282;BMP180;9774;52.034;5.342;2023-02-28T10:12:25;103023.00;;;12.40
19282;BMP180;9774;52.034;5.342;2023-02-28T10:14:54;103023.00;;;12.50
19282;BMP180;9774;52.034;5.342;2023-02-28T10:17:26;103012.00;;;12.60
19282;BMP180;9774;52.034;5.342;2023-02-28T10:20:00;103011.00;;;12.70
19282;BMP180;9774;52.034;5.342;2023-02-28T10:22:38;103010.00;;;12.90
19282;BMP180;9774;52.034;5.342;2023-02-28T10:25:18;103013.00;;;12.80
19282;BMP180;9774;52.034;5.342;2023-02-28T10:27:46;103000.00;;;12.90
19282;BMP180;9774;52.034;5.342;2023-02-28T10:30:14;103005.00;;;13.00
19282;BMP180;9774;52.034;5.342;2023-02-28T10:32:51;102998.00;;;12.90
19282;BMP180;9774;52.034;5.342;2023-02-28T10:35:22;102996.00;;;13.00
19282;BMP180;9774;52.034;5.342;2023-02-28T10:37:52;103010.00;;;13.10
19282;BMP180;9774;52.034;5.342;2023-02-28T10:40:29;103014.00;;;13.00
19282;BMP180;9774;52.034;5.342;2023-02-28T10:42:59;103009.00;;;13.10
19282;BMP180;9774;52.034;5.342;2023-02-28T10:45:28;103011.00;;;13.10
19282;BMP180;9774;52.034;5.342;2023-02-28T10:47:58;103007.00;;;13.10
19282;BMP180;9774;52.034;5.342;2023-02-28T10:50:37;103011.00;;;13.10
19282;BMP180;9774;52.034;5.342;2023-02-28T10:53:17;103016.00;;;13.10
19282;BMP180;9774;52.034;5.342;2023-02-28T10:55:57;103009.00;;;13.10
19282;BMP180;9774;52.034;5.342;2023-02-28T10:58:26;102994.00;;;13.20
19282;BMP180;9774;52.034;5.342;2023-02-28T11:00:54;102998.00;;;13.20
19282;BMP180;9774;52.034;5.342;2023-02-28T11:03:30;102989.00;;;13.20
19282;BMP180;9774;52.034;5.342;2023-02-28T11:06:04;102982.00;;;13.20
19282;BMP180;9774;52.034;5.342;2023-02-28T11:08:31;102992.00;;;13.20
19282;BMP180;9774;52.034;5.342;2023-02-28T11:11:03;102976.00;;;13.20
19282;BMP180;9774;52.034;5.342;2023-02-28T11:13:33;102977.00;;;13.20
19282;BMP180;9774;52.034;5.342;2023-02-28T11:16:04;102978.00;;;13.30
19282;BMP180;9774;52.034;5.342;2023-02-28T11:18:37;102976.00;;;13.30
19282;BMP180;9774;52.034;5.342;2023-02-28T11:21:07;102975.00;;;13.30
19282;BMP180;9774;52.034;5.342;2023-02-28T11:23:39;102964.00;;;13.40
19282;BMP180;9774;52.034;5.342;2023-02-28T11:26:07;102967.00;;;13.40
19282;BMP180;9774;52.034;5.342;2023-02-28T11:28:39;102970.00;;;13.40
19282;BMP180;9774;52.034;5.342;2023-02-28T11:31:16;102961.00;;;13.40
19282;BMP180;9774;52.034;5.342;2023-02-28T11:33:47;102969.00;;;13.50
19282;BMP180;9774;52.034;5.342;2023-02-28T11:36:20;102961.00;;;13.50
19282;BMP180;9774;52.034;5.342;2023-02-28T11:38:51;102964.00;;;13.50
19282;BMP180;9774;52.034;5.342;2023-02-28T11:41:36;102960.00;;;13.50
19282;BMP180;9774;52.034;5.342;2023-02-28T11:44:23;102956.00;;;13.50
19282;BMP180;9774;52.034;5.342;2023-02-28T11:46:57;102955.00;;;13.60
19282;BMP180;9774;52.034;5.342;2023-02-28T11:49:35;102957.00;;;13.60
19282;BMP180;9774;52.034;5.342;2023-02-28T11:52:17;102960.00;;;13.70
19282;BMP180;9774;52.034;5.342;2023-02-28T11:55:04;102955.00;;;13.70
19282;BMP180;9774;52.034;5.342;2023-02-28T11:57:46;102963.00;;;13.70
19282;BMP180;9774;52.034;5.342;2023-02-28T12:00:29;102955.00;;;13.70
19282;BMP180;9774;52.034;5.342;2023-02-28T12:03:06;102941.00;;;13.70
19282;BMP180;9774;52.034;5.342;2023-02-28T12:05:41;102944.00;;;13.80
19282;BMP180;9774;52.034;5.342;2023-02-28T12:08:25;102949.00;;;13.70
19282;BMP180;9774;52.034;5.342;2023-02-28T12:11:02;102949.00;;;13.80
19282;BMP180;9774;52.034;5.342;2023-02-28T12:13:39;102943.00;;;13.80
19282;BMP180;9774;52.034;5.342;2023-02-28T12:16:36;102939.00;;;13.80
19282;BMP180;9774;52.034;5.342;2023-02-28T12:19:13;102947.00;;;13.90
19282;BMP180;9774;52.034;5.342;2023-02-28T12:22:11;102932.00;;;13.90
19282;BMP180;9774;52.034;5.342;2023-02-28T12:27:43;102934.00;;;14.00
19282;BMP180;9774;52.034;5.342;2023-02-28T12:30:17;102928.00;;;14.00
19282;BMP180;9774;52.034;5.342;2023-02-28T12:32:49;102926.00;;;14.00
19282;BMP180;9774;52.034;5.342;2023-02-28T12:35:21;102923.00;;;14.00
19282;BMP180;9774;52.034;5.342;2023-02-28T12:37:54;102930.00;;;14.00
19282;BMP180;9774;52.034;5.342;2023-02-28T12:40:41;102927.00;;;14.00
19282;BMP180;9774;52.034;5.342;2023-02-28T12:43:10;102921.00;;;14.00
19282;BMP180;9774;52.034;5.342;2023-02-28T12:45:42;102916.00;;;14.00
19282;BMP180;9774;52.034;5.342;2023-02-28T12:48:13;102919.00;;;14.00
19282;BMP180;9774;52.034;5.342;2023-02-28T12:50:42;102911.00;;;14.10
19282;BMP180;9774;52.034;5.342;2023-02-28T12:53:15;102912.00;;;14.10
19282;BMP180;9774;52.034;5.342;2023-02-28T12:55:49;102916.00;;;14.10
19282;BMP180;9774;52.034;5.342;2023-02-28T12:58:26;102909.00;;;14.10
19282;BMP180;9774;52.034;5.342;2023-02-28T13:01:13;102904.00;;;14.20
19282;BMP180;9774;52.034;5.342;2023-02-28T13:04:08;102905.00;;;14.20
19282;BMP180;9774;52.034;5.342;2023-02-28T13:06:58;102907.00;;;14.30
19282;BMP180;9774;52.034;5.342;2023-02-28T13:09:27;102904.00;;;14.40
19282;BMP180;9774;52.034;5.342;2023-02-28T13:11:56;102905.00;;;14.50
19282;BMP180;9774;52.034;5.342;2023-02-28T13:14:27;102903.00;;;14.60
19282;BMP180;9774;52.034;5.342;2023-02-28T13:17:03;102897.00;;;14.60
19282;BMP180;9774;52.034;5.342;2023-02-28T13:19:39;102889.00;;;14.80
19282;BMP180;9774;52.034;5.342;2023-02-28T13:22:18;102896.00;;;14.90
19282;BMP180;9774;52.034;5.342;2023-02-28T13:24:48;102890.00;;;15.20
19282;BMP180;9774;52.034;5.342;2023-02-28T13:27:38;102895.00;;;15.40
19282;BMP180;9774;52.034;5.342;2023-02-28T13:33:27;102884.00;;;16.70
19282;BMP180;9774;52.034;5.342;2023-02-28T13:36:22;102884.00;;;17.60
19282;BMP180;9774;52.034;5.342;2023-02-28T13:38:51;102883.00;;;18.40
19282;BMP180;9774;52.034;5.342;2023-02-28T13:41:44;102877.00;;;19.20
19282;BMP180;9774;52.034;5.342;2023-02-28T13:44:15;102890.00;;;20.00
19282;BMP180;9774;52.034;5.342;2023-02-28T13:47:19;102884.00;;;20.60
19282;BMP180;9774;52.034;5.342;2023-02-28T13:49:47;102890.00;;;21.30
19282;BMP180;9774;52.034;5.342;2023-02-28T13:52:18;102879.00;;;21.90
19282;BMP180;9774;52.034;5.342;2023-02-28T13:54:58;102880.00;;;22.50
19282;BMP180;9774;52.034;5.342;2023-02-28T13:57:36;102890.00;;;23.10
19282;BMP180;9774;52.034;5.342;2023-02-28T14:00:23;102883.00;;;23.60
19282;BMP180;9774;52.034;5.342;2023-02-28T14:03:14;102882.00;;;24.10
19282;BMP180;9774;52.034;5.342;2023-02-28T14:05:45;102877.00;;;24.60
19282;BMP180;9774;52.034;5.342;2023-02-28T14:08:15;102883.00;;;25.00
19282;BMP180;9774;52.034;5.342;2023-02-28T14:10:46;102886.00;;;25.40
19282;BMP180;9774;52.034;5.342;2023-02-28T14:13:39;102888.00;;;25.70
19282;BMP180;9774;52.034;5.342;2023-02-28T14:16:13;102880.00;;;26.20
19282;BMP180;9774;52.034;5.342;2023-02-28T14:18:42;102885.00;;;26.40
19282;BMP180;9774;52.034;5.342;2023-02-28T14:21:21;102880.00;;;26.70
19282;BMP180;9774;52.034;5.342;2023-02-28T14:24:16;102878.00;;;26.90
19282;BMP180;9774;52.034;5.342;2023-02-28T14:30:13;102877.00;;;27.40
19282;BMP180;9774;52.034;5.342;2023-02-28T14:32:47;102880.00;;;27.70
19282;BMP180;9774;52.034;5.342;2023-02-28T14:35:47;102882.00;;;27.80
19282;BMP180;9774;52.034;5.342;2023-02-28T14:38:19;102888.00;;;27.90
19282;BMP180;9774;52.034;5.342;2023-02-28T14:40:49;102884.00;;;27.40
19282;BMP180;9774;52.034;5.342;2023-02-28T14:43:23;102886.00;;;26.60
19282;BMP180;9774;52.034;5.342;2023-02-28T14:45:52;102879.00;;;25.80
19282;BMP180;9774;52.034;5.342;2023-02-28T14:48:22;102873.00;;;25.00
19282;BMP180;9774;52.034;5.342;2023-02-28T14:50:53;102869.00;;;24.10
19282;BMP180;9774;52.034;5.342;2023-02-28T14:53:22;102872.00;;;23.40
19282;BMP180;9774;52.034;5.342;2023-02-28T14:55:50;102879.00;;;22.60
19282;BMP180;9774;52.034;5.342;2023-02-28T14:58:27;102875.00;;;21.80